Airfield :
LOGIN :

Register | Disclaimer

   EN    FR    IT 

 










Legend :    VFR   Marginal VFR   IFR   Intensive IFR   Very Intensive IFR
Visi :
Ceiling :
>= 8 km
>= 3000ft
5 to 8 km
1000 to 3000 ft
1500m to 5 km
500 to 1000 ft
800 to 1500m
200 to 500 ft
< 800m
< 200 ft
Symbols :   Thunderstorms  Fog  Heavy snow  Heavy precipitations  Wind > 20 kt
SIGMETs :     Misc.  Thunderstorms  Icing  Turbulence  Mountain Waves  Volcanic Ashes






- Airport Elevation : 876 ft
- IATA code : MBX


LJMB - Maribor

CURRENT METAR :
  • 181330Z 33015KT 9999 VCSH FEW043TCU BKN063 08/04 Q1011

EXPIRED METARs :
  • 181300Z 31005KT 9999 VCSH FEW036TCU BKN052 08/05 Q1011
  • 181230Z 31011KT 9999 -SHRA SCT029TCU BKN047 07/04 Q1011
  • 181200Z 31013KT 9999 -SHRA SCT027TCU BKN046 07/04 Q1011
  • 181130Z 31004KT 280V340 9999 VCSH SCT027TCU BKN046 10/02 Q1011
  • 181100Z 05004KT 350V110 9999 SCT039 BKN063 11/00 Q1010
  • 181030Z 09005KT 060V120 9999 SCT039 BKN063 11/01 Q1010
  • 181000Z VRB02KT 9999 VCSH SCT039 BKN058 10/01 Q1010
  • 180930Z 10004KT 070V130 9999 SCT039 BKN058 10/01 Q1010
  • 180900Z 06005KT 030V100 9999 FEW024TCU BKN051 10/02 Q1010

TAF TAF LJMB
Valid from the 18 at 12:00 until the 19 at 12:00 UTC


181100Z 1812/1912 09006KT 9999 SCT040
TEMPO 1812/1818 SHRA SCT035TCU BKN040
PROB30
TEMPO 1812/1817 5000 TSRA SCT035CB BKN040
TEMPO 1816/1900 35010KT



MET'MAP, your aeronautical weather chart ! - Copyright ORBIFLY December 2007 - Disclaimer

ORBIFLY MET'MAP TEAM :

Programming & Development : Alexandra Zaïnal
Original concept : Baudouin d'Aumeries
Technical & hardware support : Manuel Goepfert
Assistance : Marc-Olivier Méhu




SOURCES & CREDITS :

   NOAA